createdAt,value
2019-05-17T00:00:08.994Z,25.43
2019-05-17T00:02:37.779Z,25.70
2019-05-17T00:05:07.404Z,25.13
2019-05-17T00:07:36.842Z,25.10
2019-05-17T00:10:06.891Z,23.83
2019-05-17T00:12:36.813Z,24.00
2019-05-17T00:15:07.322Z,23.83
2019-05-17T00:17:37.737Z,25.83
2019-05-17T00:20:08.055Z,27.03
2019-05-17T00:22:36.762Z,27.30
2019-05-17T00:25:08.814Z,26.73
2019-05-17T00:27:37.899Z,26.80
2019-05-17T00:30:09.945Z,27.03
2019-05-17T00:32:38.417Z,25.97
2019-05-17T00:35:07.517Z,26.20
2019-05-17T00:37:37.369Z,26.33
2019-05-17T00:40:07.497Z,28.00
2019-05-17T00:42:37.179Z,27.17
2019-05-17T00:45:08.318Z,27.90
2019-05-17T00:47:37.422Z,26.40
2019-05-17T00:50:07.599Z,26.10
2019-05-17T00:52:37.027Z,26.97
2019-05-17T00:55:08.493Z,24.80
2019-05-17T00:57:39.851Z,26.07
2019-05-17T01:00:09.079Z,26.03
2019-05-17T01:02:37.489Z,24.07
2019-05-17T01:05:07.742Z,26.57
2019-05-17T01:07:37.762Z,25.43
2019-05-17T01:10:08.185Z,24.63
2019-05-17T01:12:36.808Z,24.47
2019-05-17T01:15:09.761Z,23.93
2019-05-17T01:17:38.265Z,23.70
2019-05-17T01:20:08.148Z,24.33
2019-05-17T01:22:36.803Z,24.50
2019-05-17T01:25:08.596Z,26.73
2019-05-17T01:27:38.184Z,26.63
2019-05-17T01:30:08.432Z,25.27
2019-05-17T01:32:37.584Z,26.93
2019-05-17T01:35:07.465Z,25.57
2019-05-17T01:37:36.935Z,25.37
2019-05-17T01:40:07.699Z,24.20
2019-05-17T01:42:37.380Z,24.80
2019-05-17T01:45:09.952Z,24.60
2019-05-17T01:47:38.373Z,24.30
2019-05-17T01:50:09.922Z,24.13
2019-05-17T01:52:38.430Z,24.67
2019-05-17T01:55:08.769Z,25.87
2019-05-17T01:57:37.340Z,24.77
2019-05-17T02:00:10.973Z,24.30
2019-05-17T02:02:41.139Z,23.23
2019-05-17T02:05:10.213Z,23.57
2019-05-17T02:07:38.704Z,25.70
2019-05-17T02:10:08.280Z,24.30
2019-05-17T02:12:37.163Z,26.93
2019-05-17T02:15:10.700Z,26.10
2019-05-17T02:17:39.180Z,24.03
2019-05-17T02:20:08.797Z,24.13
2019-05-17T02:22:37.208Z,24.23
2019-05-17T02:25:08.038Z,23.93
2019-05-17T02:27:44.503Z,23.20
2019-05-17T02:30:14.058Z,25.40
2019-05-17T02:32:43.829Z,25.83
2019-05-17T02:35:14.266Z,26.50
2019-05-17T02:37:43.539Z,28.50
2019-05-17T02:40:15.259Z,28.20
2019-05-17T02:42:44.377Z,26.53
2019-05-17T02:45:14.219Z,24.73
2019-05-17T02:47:43.957Z,25.23
2019-05-17T02:50:13.635Z,27.20
2019-05-17T02:52:43.553Z,25.80
2019-05-17T02:55:13.417Z,25.07
2019-05-17T02:57:43.277Z,25.93
2019-05-17T03:00:13.875Z,25.10
2019-05-17T03:02:43.888Z,23.47
2019-05-17T03:05:13.825Z,24.70
2019-05-17T03:07:43.945Z,22.50
2019-05-17T03:10:22.920Z,21.60
2019-05-17T03:12:44.323Z,20.87
2019-05-17T03:15:13.451Z,20.17
2019-05-17T03:17:43.497Z,22.07
2019-05-17T03:20:13.356Z,19.33
2019-05-17T03:22:44.071Z,16.87
2019-05-17T03:25:13.904Z,18.43
2019-05-17T03:27:43.625Z,18.53
2019-05-17T03:30:17.091Z,20.40
2019-05-17T03:32:47.522Z,21.10
2019-05-17T03:35:17.488Z,20.57
2019-05-17T03:37:45.334Z,22.10
2019-05-17T03:40:35.127Z,19.73
2019-05-17T03:42:44.435Z,20.27
2019-05-17T03:45:13.916Z,20.97
2019-05-17T03:47:44.548Z,25.07
2019-05-17T03:50:13.813Z,25.50
2019-05-17T03:52:44.321Z,28.13
2019-05-17T03:55:13.650Z,24.20
2019-05-17T03:57:44.256Z,24.97
2019-05-17T04:00:13.452Z,23.70
2019-05-17T04:02:44.488Z,22.83
2019-05-17T04:05:13.295Z,23.53
2019-05-17T04:07:43.864Z,25.33
2019-05-17T04:10:15.224Z,24.23
2019-05-17T04:12:44.319Z,23.43
2019-05-17T04:15:13.949Z,22.87
2019-05-17T04:17:43.801Z,20.23
2019-05-17T04:20:13.875Z,21.00
2019-05-17T04:22:44.394Z,24.70
2019-05-17T04:25:13.701Z,26.17
2019-05-17T04:27:44.036Z,24.93
2019-05-17T04:30:13.330Z,24.43
2019-05-17T04:32:44.094Z,25.27
2019-05-17T04:35:13.284Z,25.43
2019-05-17T04:37:44.431Z,25.60
2019-05-17T04:40:14.320Z,27.60
2019-05-17T04:42:44.096Z,26.13
2019-05-17T04:45:14.002Z,27.40
2019-05-17T04:47:44.491Z,27.07
2019-05-17T04:50:13.712Z,27.07
2019-05-17T04:52:43.459Z,25.57
2019-05-17T04:55:13.792Z,25.23
2019-05-17T04:57:43.973Z,25.73
2019-05-17T05:00:13.618Z,25.03
2019-05-17T05:02:43.973Z,26.17
2019-05-17T05:05:14.340Z,24.57
2019-05-17T05:07:43.589Z,25.30
2019-05-17T05:10:13.710Z,26.73
2019-05-17T05:12:43.825Z,26.23
2019-05-17T05:15:12.851Z,24.77
2019-05-17T05:17:42.625Z,25.73
2019-05-17T05:20:13.419Z,24.63
2019-05-17T05:22:42.928Z,25.37
2019-05-17T05:25:12.903Z,24.57
2019-05-17T05:27:42.567Z,24.67
2019-05-17T05:30:12.297Z,25.07
2019-05-17T05:32:42.601Z,26.20
2019-05-17T05:35:12.328Z,24.43
2019-05-17T05:37:42.423Z,25.63
2019-05-17T05:40:12.977Z,23.63
2019-05-17T05:42:42.631Z,24.97
2019-05-17T05:45:12.376Z,24.30
2019-05-17T05:47:42.227Z,25.80
2019-05-17T05:50:12.431Z,25.33
2019-05-17T05:52:42.181Z,24.30
2019-05-17T05:55:12.442Z,24.67
2019-05-17T05:57:41.934Z,25.13
2019-05-17T06:00:13.432Z,24.97
2019-05-17T06:02:42.214Z,24.30
2019-05-17T06:05:14.959Z,25.00
2019-05-17T06:07:42.144Z,24.67
2019-05-17T06:10:13.124Z,23.93
2019-05-17T06:12:43.382Z,24.57
2019-05-17T06:15:13.713Z,24.20
2019-05-17T06:17:43.083Z,24.00
2019-05-17T06:20:12.244Z,23.37
2019-05-17T06:22:42.927Z,22.27
2019-05-17T06:25:14.850Z,23.60
2019-05-17T06:27:41.643Z,23.87
2019-05-17T06:30:12.551Z,22.50
2019-05-17T06:32:43.209Z,21.97
2019-05-17T06:35:12.602Z,22.13
2019-05-17T06:37:42.327Z,20.53
2019-05-17T06:40:13.100Z,21.60
2019-05-17T06:42:45.100Z,20.33
2019-05-17T06:45:12.452Z,20.23
2019-05-17T06:47:42.577Z,19.43
2019-05-17T06:50:14.360Z,19.47
2019-05-17T06:52:43.750Z,18.67
2019-05-17T06:55:13.019Z,18.97
2019-05-17T06:57:43.419Z,18.57
2019-05-17T07:00:19.500Z,17.50
2019-05-17T07:02:43.535Z,19.00
2019-05-17T07:05:29.669Z,17.50
2019-05-17T07:08:00.106Z,17.17
2019-05-17T07:10:30.202Z,15.97
2019-05-17T07:12:59.622Z,16.47
2019-05-17T07:15:43.289Z,17.50
2019-05-17T07:17:59.989Z,16.77
2019-05-17T07:20:29.947Z,16.00
2019-05-17T07:23:00.373Z,15.30
2019-05-17T07:25:30.336Z,14.73
2019-05-17T07:28:00.500Z,15.13
2019-05-17T07:30:30.548Z,13.97
2019-05-17T07:33:00.328Z,14.67
2019-05-17T07:35:30.006Z,13.73
2019-05-17T07:37:59.555Z,14.60
2019-05-17T07:40:30.262Z,14.47
2019-05-17T07:43:09.788Z,14.33
2019-05-17T07:45:29.570Z,13.90
2019-05-17T07:48:00.031Z,13.60
2019-05-17T07:50:29.309Z,12.83
2019-05-17T07:52:57.847Z,12.10
2019-05-17T07:55:26.247Z,12.40
2019-05-17T07:57:54.676Z,12.63
2019-05-17T08:00:23.225Z,12.90
2019-05-17T08:02:51.648Z,11.30
2019-05-17T08:05:21.366Z,11.50
2019-05-17T08:07:50.138Z,11.83
2019-05-17T08:10:20.411Z,10.80
2019-05-17T08:12:49.784Z,10.97
2019-05-17T08:15:19.807Z,10.67
2019-05-17T08:17:50.186Z,11.90
2019-05-17T08:20:20.363Z,11.73
2019-05-17T08:22:50.240Z,11.80
2019-05-17T08:25:20.024Z,11.77
2019-05-17T08:27:50.391Z,11.30
2019-05-17T08:30:20.737Z,12.50
2019-05-17T08:32:50.451Z,12.67
2019-05-17T08:35:19.780Z,12.83
2019-05-17T08:37:49.945Z,11.23
2019-05-17T08:40:19.997Z,11.50
2019-05-17T08:42:49.872Z,12.43
2019-05-17T08:45:20.613Z,12.17
2019-05-17T08:47:50.063Z,13.10
2019-05-17T08:50:20.105Z,12.87
2019-05-17T08:52:49.479Z,14.00
2019-05-17T08:55:20.311Z,12.70
2019-05-17T08:57:50.076Z,12.13
2019-05-17T09:00:20.731Z,12.47
2019-05-17T09:02:49.974Z,12.57
2019-05-17T09:05:21.101Z,12.10
2019-05-17T09:07:49.292Z,12.93
2019-05-17T09:10:20.580Z,12.57
2019-05-17T09:12:50.234Z,11.23
2019-05-17T09:15:20.326Z,11.47
2019-05-17T09:17:49.875Z,11.07
2019-05-17T09:20:20.424Z,11.07
2019-05-17T09:22:50.889Z,11.13
2019-05-17T09:25:21.776Z,10.77
2019-05-17T09:27:50.156Z,10.60
2019-05-17T09:30:20.459Z,11.13
2019-05-17T09:32:50.319Z,10.50
2019-05-17T09:35:20.834Z,9.33
2019-05-17T09:37:49.868Z,10.10
2019-05-17T09:40:19.996Z,9.53
2019-05-17T09:42:49.937Z,9.70
2019-05-17T09:45:20.158Z,9.07
2019-05-17T09:47:50.618Z,8.20
2019-05-17T09:50:20.012Z,8.27
2019-05-17T09:52:49.484Z,8.60
2019-05-17T09:55:19.612Z,8.73
2019-05-17T09:57:49.710Z,8.00
2019-05-17T10:00:20.833Z,9.87
2019-05-17T10:02:50.846Z,8.67
2019-05-17T10:05:20.214Z,9.27
2019-05-17T10:07:50.729Z,9.40
2019-05-17T10:10:20.261Z,8.60
2019-05-17T10:12:49.616Z,9.77
2019-05-17T10:15:20.494Z,8.00
2019-05-17T10:17:48.536Z,8.33
2019-05-17T10:20:17.101Z,7.67
2019-05-17T10:22:45.512Z,7.07
2019-05-17T10:25:14.205Z,7.80
2019-05-17T10:27:42.611Z,7.37
2019-05-17T10:30:11.259Z,7.73
2019-05-17T10:32:40.729Z,7.00
2019-05-17T10:35:09.887Z,6.60
2019-05-17T10:37:40.834Z,6.50
2019-05-17T10:40:10.463Z,7.10
2019-05-17T10:42:39.715Z,7.80
2019-05-17T10:45:10.906Z,6.63
2019-05-17T10:47:40.040Z,5.30
2019-05-17T10:50:10.876Z,6.90
2019-05-17T10:52:40.885Z,5.93
2019-05-17T10:55:10.600Z,5.80
2019-05-17T10:57:39.284Z,5.47
2019-05-17T11:00:10.153Z,5.77
2019-05-17T11:02:39.086Z,5.80
2019-05-17T11:05:07.634Z,5.70
2019-05-17T11:07:36.055Z,5.70
2019-05-17T11:10:06.439Z,5.50
2019-05-17T11:12:34.897Z,6.20
2019-05-17T11:15:11.472Z,6.07
2019-05-17T11:17:35.652Z,5.40
2019-05-17T11:20:08.914Z,4.47
2019-05-17T11:22:37.335Z,4.60
2019-05-17T11:25:09.002Z,5.53
2019-05-17T11:27:37.415Z,5.50
2019-05-17T11:30:06.466Z,5.27
2019-05-17T11:32:34.934Z,5.00
2019-05-17T11:35:04.028Z,5.37
2019-05-17T11:37:32.445Z,5.13
2019-05-17T11:40:00.855Z,5.00
2019-05-17T11:42:29.266Z,4.47
2019-05-17T11:44:57.688Z,5.13
2019-05-17T11:47:26.086Z,5.03
2019-05-17T11:49:54.504Z,4.23
2019-05-17T11:52:22.920Z,3.93
2019-05-17T11:54:51.427Z,4.30
2019-05-17T11:57:19.914Z,3.53
2019-05-17T11:59:48.392Z,4.53
2019-05-17T12:02:16.812Z,4.57
2019-05-17T12:04:45.225Z,4.30
2019-05-17T12:07:13.647Z,3.70
2019-05-17T12:09:42.048Z,3.50
2019-05-17T12:12:10.578Z,3.40
2019-05-17T12:14:39.021Z,4.03
2019-05-17T12:17:07.520Z,4.20
2019-05-17T12:19:37.202Z,4.63
2019-05-17T12:22:05.989Z,6.67
2019-05-17T12:24:34.396Z,6.27
2019-05-17T12:27:02.914Z,4.63
2019-05-17T12:29:31.367Z,5.50
2019-05-17T12:31:59.793Z,4.20
2019-05-17T12:34:28.191Z,5.37
2019-05-17T12:36:56.607Z,3.30
2019-05-17T12:39:25.021Z,4.30
2019-05-17T12:41:53.484Z,4.30
2019-05-17T12:44:21.949Z,3.90
2019-05-17T12:46:50.360Z,3.87
2019-05-17T12:49:18.848Z,3.40
2019-05-17T12:51:47.257Z,4.47
2019-05-17T12:54:15.674Z,3.77
2019-05-17T12:56:44.078Z,5.80
2019-05-17T12:59:12.496Z,3.33
2019-05-17T13:01:41.113Z,3.17
2019-05-17T13:04:09.532Z,3.87
2019-05-17T13:06:37.932Z,3.47
2019-05-17T13:09:06.595Z,3.53
2019-05-17T13:11:34.995Z,3.10
2019-05-17T13:14:03.698Z,4.20
2019-05-17T13:16:32.104Z,3.20
2019-05-17T13:19:00.541Z,3.77
2019-05-17T13:21:28.956Z,3.13
2019-05-17T13:23:57.369Z,3.37
2019-05-17T13:26:25.783Z,3.37
2019-05-17T13:28:54.196Z,2.93
2019-05-17T13:31:22.615Z,3.47
2019-05-17T13:33:51.039Z,4.27
2019-05-17T13:36:19.527Z,4.27
2019-05-17T13:38:47.928Z,3.00
2019-05-17T13:41:16.414Z,2.57
2019-05-17T13:43:44.862Z,3.23
2019-05-17T13:46:13.381Z,6.13
2019-05-17T13:48:41.843Z,2.90
2019-05-17T13:51:10.263Z,3.80
2019-05-17T13:53:38.675Z,4.07
2019-05-17T13:56:07.102Z,3.10
2019-05-17T13:58:35.506Z,4.37
2019-05-17T14:01:03.977Z,3.43
2019-05-17T14:03:32.394Z,2.40
2019-05-17T14:06:00.846Z,2.30
2019-05-17T14:08:29.325Z,2.40
2019-05-17T14:10:57.734Z,2.50
2019-05-17T14:13:26.321Z,2.00
2019-05-17T14:15:54.734Z,2.50
2019-05-17T14:18:23.143Z,2.10
2019-05-17T14:20:51.548Z,2.63
2019-05-17T14:23:19.964Z,2.40
2019-05-17T14:25:48.374Z,3.40
2019-05-17T14:28:16.790Z,2.73
2019-05-17T14:30:45.189Z,3.73
2019-05-17T14:33:13.605Z,6.13
2019-05-17T14:35:42.026Z,3.80
2019-05-17T14:38:10.500Z,2.47
2019-05-17T14:41:04.854Z,2.90
2019-05-17T14:43:09.074Z,3.03
2019-05-17T14:45:37.564Z,2.73
2019-05-17T14:48:05.975Z,4.10
2019-05-17T14:50:34.464Z,4.00
2019-05-17T14:53:02.873Z,2.50
2019-05-17T14:55:31.295Z,2.93
2019-05-17T14:57:59.697Z,3.70
2019-05-17T15:00:28.185Z,2.43
2019-05-17T15:02:56.597Z,3.37
2019-05-17T15:05:25.093Z,2.93
2019-05-17T15:07:53.513Z,5.23
2019-05-17T15:10:21.916Z,4.17
2019-05-17T15:12:50.336Z,2.57
2019-05-17T15:15:25.696Z,2.63
2019-05-17T15:17:49.067Z,2.67
2019-05-17T15:20:17.475Z,3.07
2019-05-17T15:22:45.898Z,2.63
2019-05-17T15:25:14.397Z,2.23
2019-05-17T15:27:42.863Z,3.30
2019-05-17T15:30:11.821Z,2.53
2019-05-17T15:32:40.246Z,3.57
2019-05-17T15:35:08.893Z,2.67
2019-05-17T15:37:37.318Z,2.50
2019-05-17T15:40:08.929Z,2.80
2019-05-17T15:42:44.070Z,2.73
2019-05-17T15:45:08.537Z,4.00
2019-05-17T15:47:37.029Z,2.57
2019-05-17T15:50:06.467Z,2.13
2019-05-17T15:52:34.884Z,2.97
2019-05-17T15:55:03.746Z,4.37
2019-05-17T15:57:32.145Z,4.53
2019-05-17T16:00:00.556Z,2.60
2019-05-17T16:02:28.959Z,2.00
2019-05-17T16:04:57.370Z,4.10
2019-05-17T16:07:25.779Z,2.20
2019-05-17T16:09:54.200Z,2.73
2019-05-17T16:12:22.611Z,2.20
2019-05-17T16:14:51.043Z,2.77
2019-05-17T16:17:19.513Z,1.93
2019-05-17T16:19:47.928Z,2.07
2019-05-17T16:22:16.339Z,2.73
2019-05-17T16:24:44.765Z,6.93
2019-05-17T16:27:13.173Z,4.03
2019-05-17T16:29:41.588Z,3.87
2019-05-17T16:32:10.015Z,2.87
2019-05-17T16:34:38.418Z,2.53
2019-05-17T16:37:06.838Z,4.00
2019-05-17T16:39:35.237Z,3.00
2019-05-17T16:42:03.719Z,2.20
2019-05-17T16:44:32.128Z,2.37
2019-05-17T16:47:00.614Z,2.40
2019-05-17T16:49:29.035Z,5.00
2019-05-17T16:51:57.472Z,2.60
2019-05-17T16:54:25.877Z,3.97
2019-05-17T16:56:54.295Z,3.47
2019-05-17T16:59:22.696Z,3.17
2019-05-17T17:01:51.120Z,2.20
2019-05-17T17:04:19.527Z,2.33
2019-05-17T17:06:47.935Z,3.17
2019-05-17T17:09:16.344Z,3.60
2019-05-17T17:11:45.802Z,3.37
2019-05-17T17:14:14.443Z,3.00
2019-05-17T17:16:42.925Z,2.20
2019-05-17T17:19:11.427Z,5.13
2019-05-17T17:21:39.829Z,2.47
2019-05-17T17:24:08.315Z,2.17
2019-05-17T17:26:36.724Z,3.70
2019-05-17T17:29:05.212Z,2.30
2019-05-17T17:31:33.615Z,2.10
2019-05-17T17:34:02.034Z,3.30
2019-05-17T17:36:30.448Z,2.67
2019-05-17T17:38:58.870Z,2.40
2019-05-17T17:41:27.343Z,3.37
2019-05-17T17:43:58.457Z,6.00
2019-05-17T17:46:25.892Z,4.90
2019-05-17T17:48:54.300Z,3.40
2019-05-17T17:51:22.769Z,3.67
2019-05-17T17:53:51.248Z,2.30
2019-05-17T17:56:19.664Z,2.20
2019-05-17T17:58:48.111Z,3.00
2019-05-17T18:01:16.572Z,2.00
2019-05-17T18:03:45.052Z,2.37
2019-05-17T18:06:13.464Z,2.47
2019-05-17T18:08:41.947Z,2.63
2019-05-17T18:11:10.432Z,3.30
2019-05-17T18:13:38.845Z,2.50
2019-05-17T18:16:07.436Z,2.97
2019-05-17T18:18:35.911Z,3.77
2019-05-17T18:21:04.320Z,2.63
2019-05-17T18:23:32.732Z,3.83
2019-05-17T18:26:01.159Z,4.70
2019-05-17T18:28:29.653Z,3.83
2019-05-17T18:30:58.051Z,4.53
2019-05-17T18:33:26.479Z,3.40
2019-05-17T18:35:54.898Z,2.77
2019-05-17T18:38:25.847Z,5.07
2019-05-17T18:40:54.328Z,2.50
2019-05-17T18:43:22.808Z,2.60
2019-05-17T18:45:51.211Z,3.13
2019-05-17T18:48:19.630Z,3.53
2019-05-17T18:50:48.029Z,4.97
2019-05-17T18:53:17.238Z,5.03
2019-05-17T18:55:45.932Z,6.20
2019-05-17T18:58:14.347Z,5.27
2019-05-17T19:00:42.840Z,3.40
2019-05-17T19:03:11.319Z,5.57
2019-05-17T19:05:39.740Z,3.30
2019-05-17T19:08:08.151Z,6.03
2019-05-17T19:10:36.569Z,3.93
2019-05-17T19:13:05.125Z,3.00
2019-05-17T19:15:33.599Z,4.23
2019-05-17T19:18:02.024Z,5.57
2019-05-17T19:20:30.427Z,2.77
2019-05-17T19:22:58.867Z,4.77
2019-05-17T19:25:27.337Z,3.13
2019-05-17T19:27:55.763Z,2.73
2019-05-17T19:30:24.417Z,3.30
2019-05-17T19:32:52.837Z,3.23
2019-05-17T19:35:21.246Z,4.23
2019-05-17T19:37:49.671Z,2.83
2019-05-17T19:40:18.217Z,4.03
2019-05-17T19:42:46.639Z,3.83
2019-05-17T19:45:15.187Z,3.87
2019-05-17T19:47:43.596Z,6.00
2019-05-17T19:50:12.740Z,3.23
2019-05-17T19:52:41.156Z,3.40
2019-05-17T19:55:09.692Z,3.33
2019-05-17T19:57:38.130Z,3.20
2019-05-17T20:00:08.461Z,5.50
2019-05-17T20:02:36.961Z,3.83
2019-05-17T20:05:07.655Z,4.63
2019-05-17T20:07:38.621Z,4.73
2019-05-17T20:10:08.105Z,3.57
2019-05-17T20:12:36.511Z,4.10
2019-05-17T20:15:17.217Z,4.43
2019-05-17T20:17:38.834Z,4.77
2019-05-17T20:20:07.900Z,4.67
2019-05-17T20:22:36.433Z,4.50
2019-05-17T20:25:06.093Z,4.37
2019-05-17T20:27:35.458Z,3.80
2019-05-17T20:30:08.980Z,4.50
2019-05-17T20:32:37.484Z,4.53
2019-05-17T20:35:06.948Z,5.33
2019-05-17T20:37:35.354Z,4.83
2019-05-17T20:40:07.953Z,4.77
2019-05-17T20:42:36.429Z,5.73
2019-05-17T20:45:08.292Z,4.53
2019-05-17T20:47:36.844Z,4.23
2019-05-17T20:50:06.892Z,5.40
2019-05-17T20:52:35.312Z,5.43
2019-05-17T20:55:04.468Z,10.60
2019-05-17T20:57:32.880Z,5.60
2019-05-17T21:00:01.288Z,4.97
2019-05-17T21:02:29.709Z,5.40
2019-05-17T21:04:58.122Z,5.40
2019-05-17T21:07:26.543Z,4.67
2019-05-17T21:09:54.955Z,5.00
2019-05-17T21:12:23.371Z,7.07
2019-05-17T21:14:51.782Z,10.23
2019-05-17T21:17:20.196Z,7.57
2019-05-17T21:19:48.604Z,10.23
2019-05-17T21:22:17.022Z,8.93
2019-05-17T21:24:45.426Z,7.40
2019-05-17T21:27:13.849Z,8.73
2019-05-17T21:29:42.248Z,7.07
2019-05-17T21:32:10.664Z,7.83
2019-05-17T21:34:39.109Z,8.83
2019-05-17T21:37:07.527Z,8.77
2019-05-17T21:39:35.939Z,11.30
2019-05-17T21:42:04.427Z,8.70
2019-05-17T21:44:32.848Z,10.03
2019-05-17T21:47:04.694Z,8.53
2019-05-17T21:49:31.404Z,8.77
2019-05-17T21:51:59.809Z,9.67
2019-05-17T21:54:28.229Z,8.40
2019-05-17T21:56:56.631Z,7.63
2019-05-17T21:59:25.048Z,8.73
2019-05-17T22:01:54.227Z,9.00
2019-05-17T22:04:22.640Z,9.87
2019-05-17T22:06:51.052Z,12.67
2019-05-17T22:09:19.537Z,8.50
2019-05-17T22:11:49.579Z,8.70
2019-05-17T22:14:17.995Z,8.43
2019-05-17T22:16:46.396Z,9.20
2019-05-17T22:19:14.811Z,8.03
2019-05-17T22:21:43.299Z,8.37
2019-05-17T22:24:11.750Z,8.50
2019-05-17T22:26:40.199Z,8.50
2019-05-17T22:29:08.612Z,8.10
2019-05-17T22:31:38.941Z,9.07
2019-05-17T22:34:07.151Z,10.13
2019-05-17T22:36:35.567Z,10.97
2019-05-17T22:39:05.618Z,8.93
2019-05-17T22:41:34.028Z,8.43
2019-05-17T22:44:02.428Z,9.40
2019-05-17T22:46:36.087Z,8.77
2019-05-17T22:49:00.984Z,9.37
2019-05-17T22:51:29.381Z,9.87
2019-05-17T22:53:57.790Z,9.10
2019-05-17T22:56:26.193Z,7.93
2019-05-17T22:58:54.615Z,11.33
2019-05-17T23:01:23.019Z,8.03
2019-05-17T23:03:51.448Z,8.50
2019-05-17T23:06:19.848Z,9.03
2019-05-17T23:08:48.263Z,8.37
2019-05-17T23:11:16.737Z,7.27
2019-05-17T23:13:45.170Z,6.87
2019-05-17T23:16:13.927Z,7.20
2019-05-17T23:18:43.987Z,7.33
2019-05-17T23:21:12.386Z,10.73
2019-05-17T23:23:40.800Z,7.03
2019-05-17T23:26:09.216Z,7.13
2019-05-17T23:28:37.630Z,7.53
2019-05-17T23:31:06.037Z,7.67
2019-05-17T23:33:34.447Z,6.70
2019-05-17T23:36:02.861Z,8.37
2019-05-17T23:38:31.272Z,6.93
2019-05-17T23:40:59.684Z,7.10
2019-05-17T23:43:28.088Z,7.97
2019-05-17T23:45:56.519Z,7.63
2019-05-17T23:48:24.983Z,7.87
2019-05-17T23:50:53.419Z,7.43
2019-05-17T23:53:21.845Z,8.77
2019-05-17T23:55:50.261Z,6.43
2019-05-17T23:58:18.679Z,6.77
